Time;durP1;ratioP1;P1;durP2;ratioP2;P2;SDS_P1;SDS_P2;PMS_P1;PMS_P2;Temp;Humidity;BMP_temperature;BMP_pressure;BME280_temperature;BME280_humidity;BME280_pressure;Samples;Min_cycle;Max_cycle;Signal;HPM_P1;HPM_P2
2023/07/13 00:01:38;;;;;;;1.33;0.80;;;24.30;58.00;;;;;;5032761;28;20042;-62
2023/07/13 00:04:06;;;;;;;3.63;0.98;;;24.20;58.00;;;;;;5033443;28;20397;-61
2023/07/13 00:06:32;;;;;;;;;;;24.30;58.10;;;;;;5033826;28;20060;-61
2023/07/13 00:08:59;;;;;;;1.70;0.88;;;24.20;58.00;;;;;;5031997;28;19921;-61
2023/07/13 00:11:25;;;;;;;1.30;0.95;;;24.20;58.10;;;;;;5033588;28;20076;-61
2023/07/13 00:13:51;;;;;;;3.45;0.95;;;24.30;58.20;;;;;;5033592;28;20041;-61
2023/07/13 00:16:18;;;;;;;3.53;1.15;;;24.20;58.10;;;;;;5032704;28;20144;-61
2023/07/13 00:18:44;;;;;;;1.67;0.90;;;24.20;58.20;;;;;;5033582;28;20073;-61
2023/07/13 00:21:10;;;;;;;2.45;0.80;;;24.20;58.20;;;;;;5033183;28;20111;-61
2023/07/13 00:23:37;;;;;;;3.60;0.98;;;24.20;58.20;;;;;;5032483;28;20107;-61
2023/07/13 00:26:04;;;;;;;1.67;0.80;;;24.20;58.20;;;;;;5033362;28;20045;-61
2023/07/13 00:28:29;;;;;;;2.10;1.00;;;24.20;58.30;;;;;;5033433;28;20064;-61
2023/07/13 00:30:55;;;;;;;1.20;0.70;;;24.20;58.30;;;;;;5032412;28;20037;-61
2023/07/13 00:33:22;;;;;;;2.22;0.98;;;24.20;58.30;;;;;;5033315;28;20041;-61
2023/07/13 00:35:48;;;;;;;1.93;0.93;;;24.20;58.40;;;;;;5032579;28;20401;-61
2023/07/13 00:38:14;;;;;;;2.40;1.08;;;24.20;58.30;;;;;;5032605;28;20046;-61
2023/07/13 00:40:40;;;;;;;1.58;0.70;;;24.20;58.40;;;;;;5032579;28;20034;-61
2023/07/13 00:43:22;;;;;;;1.95;0.80;;;24.20;58.40;;;;;;5032914;28;20091;-61
2023/07/13 00:45:47;;;;;;;2.42;0.90;;;24.20;58.40;;;;;;5032342;28;20492;-61
2023/07/13 00:48:19;;;;;;;1.27;0.90;;;24.20;58.40;;;;;;5033066;28;20046;-61
2023/07/13 00:50:46;;;;;;;1.80;0.82;;;24.20;58.50;;;;;;5014833;28;20037;-61
2023/07/13 00:53:12;;;;;;;0.82;0.63;;;24.20;58.50;;;;;;5014996;28;20053;-61
2023/07/13 00:55:37;;;;;;;1.60;1.10;;;24.20;58.50;;;;;;5031197;28;20046;-61
2023/07/13 00:58:04;;;;;;;2.15;0.88;;;24.10;58.50;;;;;;5013999;28;20058;-61
2023/07/13 01:00:30;;;;;;;1.50;0.68;;;24.10;58.50;;;;;;5031219;28;20049;-61
2023/07/13 01:02:56;;;;;;;1.83;0.80;;;24.20;58.60;;;;;;5033033;28;20073;-61
2023/07/13 01:05:22;;;;;;;2.25;0.90;;;24.20;58.60;;;;;;5030704;28;20052;-61
2023/07/13 01:07:48;;;;;;;2.67;0.88;;;24.10;58.60;;;;;;5032362;28;20053;-61
2023/07/13 01:10:14;;;;;;;1.38;0.70;;;24.10;58.60;;;;;;5031701;28;20049;-61
2023/07/13 01:12:40;;;;;;;1.67;0.75;;;24.20;58.70;;;;;;5031104;28;20049;-61
2023/07/13 01:15:26;;;;;;;2.78;1.00;;;24.10;58.70;;;;;;5032764;28;20045;-61
2023/07/13 01:17:51;;;;;;;3.20;1.13;;;24.10;58.70;;;;;;5023638;28;20095;-61
2023/07/13 01:20:17;;;;;;;2.60;0.90;;;24.10;58.70;;;;;;5017972;28;20128;-61
2023/07/13 01:22:43;;;;;;;2.35;1.00;;;24.10;58.70;;;;;;5012432;28;20180;-61
2023/07/13 01:25:08;;;;;;;2.55;0.85;;;24.10;58.70;;;;;;5012915;28;20045;-61
2023/07/13 01:27:35;;;;;;;2.22;0.80;;;24.10;58.70;;;;;;5028753;28;20040;-61
2023/07/13 01:30:03;;;;;;;1.27;0.77;;;24.10;58.70;;;;;;5032647;28;20053;-61
2023/07/13 01:32:34;;;;;;;2.25;0.85;;;24.10;58.70;;;;;;5031289;28;20052;-62
2023/07/13 01:34:59;;;;;;;1.80;0.88;;;24.00;58.70;;;;;;5032839;28;20080;-61
2023/07/13 01:37:26;;;;;;;2.40;1.13;;;24.00;58.70;;;;;;5032206;28;20518;-61
2023/07/13 01:39:51;;;;;;;1.75;0.90;;;24.10;58.80;;;;;;5031094;28;20049;-61
2023/07/13 01:42:17;;;;;;;2.85;1.05;;;24.10;58.80;;;;;;5032379;28;20037;-61
2023/07/13 01:44:43;;;;;;;3.38;1.25;;;24.10;58.80;;;;;;5032588;28;20396;-61
2023/07/13 01:47:09;;;;;;;2.28;1.13;;;24.10;58.90;;;;;;5031498;28;20040;-62
2023/07/13 01:49:35;;;;;;;1.95;0.80;;;24.00;58.80;;;;;;5031932;28;20376;-61
2023/07/13 01:52:00;;;;;;;2.88;0.90;;;24.00;58.80;;;;;;5032218;28;20137;-61
2023/07/13 01:54:26;;;;;;;3.05;1.00;;;24.00;58.80;;;;;;5033497;28;20053;-61
2023/07/13 01:56:52;;;;;;;2.03;0.90;;;24.00;58.80;;;;;;5034341;28;20060;-62
2023/07/13 01:59:17;;;;;;;1.45;0.82;;;24.00;58.80;;;;;;5036212;28;20051;-62
2023/07/13 02:01:43;;;;;;;1.35;0.80;;;24.00;58.90;;;;;;5035096;28;20077;-62
2023/07/13 02:04:08;;;;;;;2.55;0.82;;;24.00;58.90;;;;;;5036398;28;20044;-61
2023/07/13 02:06:34;;;;;;;2.55;0.90;;;24.00;58.90;;;;;;5035040;28;20095;-61
2023/07/13 02:09:00;;;;;;;2.47;0.90;;;24.00;58.90;;;;;;5035112;28;20456;-61
2023/07/13 02:11:32;;;;;;;3.92;1.23;;;24.00;58.90;;;;;;5035593;28;20555;-61
2023/07/13 02:13:59;;;;;;;2.13;1.00;;;24.00;58.90;;;;;;5036456;28;20049;-61
2023/07/13 02:16:24;;;;;;;2.28;0.95;;;24.00;59.00;;;;;;5035108;28;20140;-61
2023/07/13 02:18:52;;;;;;;1.50;1.00;;;24.00;59.00;;;;;;5035588;28;20045;-61
2023/07/13 02:21:17;;;;;;;1.90;1.00;;;24.00;59.00;;;;;;5035685;28;20504;-62
2023/07/13 02:23:43;;;;;;;1.55;0.63;;;24.00;59.00;;;;;;5034762;28;20045;-61
2023/07/13 02:26:09;;;;;;;2.80;0.85;;;24.00;59.00;;;;;;5035382;28;20046;-61
2023/07/13 02:28:35;;;;;;;3.40;1.00;;;24.00;59.00;;;;;;5035607;28;20064;-61
2023/07/13 02:31:07;;;;;;;1.88;0.90;;;24.00;59.00;;;;;;5034751;28;20064;-61
2023/07/13 02:33:33;;;;;;;2.63;1.02;;;24.00;59.00;;;;;;5035321;28;20056;-61
2023/07/13 02:35:59;;;;;;;2.53;1.00;;;23.90;59.10;;;;;;5034470;28;20041;-61
2023/07/13 02:38:24;;;;;;;2.38;0.95;;;24.00;59.10;;;;;;5035539;28;20140;-61
2023/07/13 02:40:51;;;;;;;3.45;0.93;;;23.90;59.10;;;;;;5035172;28;20405;-61
2023/07/13 02:43:16;;;;;;;2.35;1.00;;;23.90;59.10;;;;;;5034543;28;20045;-61
2023/07/13 02:45:45;;;;;;;2.17;0.90;;;24.00;59.20;;;;;;5035108;28;20124;-62
2023/07/13 02:48:13;;;;;;;2.17;1.00;;;23.90;59.10;;;;;;5034888;28;20401;-61
2023/07/13 02:50:38;;;;;;;3.20;1.10;;;23.90;59.10;;;;;;5034349;28;20041;-61
2023/07/13 02:53:04;;;;;;;2.00;1.10;;;23.90;59.10;;;;;;5034790;28;20107;-62
2023/07/13 02:55:33;;;;;;;2.13;0.88;;;23.90;59.20;;;;;;5034874;28;20551;-61
2023/07/13 02:57:58;;;;;;;2.28;0.70;;;23.90;59.20;;;;;;5033993;28;20053;-61
2023/07/13 03:00:24;;;;;;;2.97;1.10;;;23.90;59.20;;;;;;5035194;28;20045;-61
2023/07/13 03:02:49;;;;;;;3.05;1.33;;;23.90;59.20;;;;;;5034444;28;20042;-61
2023/07/13 03:05:16;;;;;;;1.80;0.80;;;23.90;59.20;;;;;;5033696;28;20049;-61
2023/07/13 03:07:42;;;;;;;2.67;1.10;;;23.90;59.30;;;;;;5034188;28;20042;-61
2023/07/13 03:10:09;;;;;;;1.98;0.90;;;23.90;59.30;;;;;;5034829;28;20057;-61
2023/07/13 03:12:34;;;;;;;2.05;0.90;;;23.90;59.20;;;;;;5033824;28;20046;-61
2023/07/13 03:15:00;;;;;;;1.88;0.75;;;23.90;59.30;;;;;;5034874;28;20041;-61
2023/07/13 03:17:25;;;;;;;2.63;0.90;;;23.80;59.20;;;;;;5033989;28;20046;-61
2023/07/13 03:19:51;;;;;;;2.05;1.00;;;23.80;59.20;;;;;;5033648;28;20042;-61
2023/07/13 03:22:20;;;;;;;2.25;1.00;;;23.80;59.30;;;;;;5034565;28;20033;-61
2023/07/13 03:24:45;;;;;;;2.63;1.00;;;23.80;59.30;;;;;;5034581;28;20392;-61
2023/07/13 03:27:11;;;;;;;2.75;0.93;;;23.80;59.30;;;;;;5033657;28;20044;-61
2023/07/13 03:29:37;;;;;;;2.25;0.93;;;23.90;59.40;;;;;;5034404;28;20037;-61
2023/07/13 03:32:04;;;;;;;3.08;1.20;;;23.90;59.40;;;;;;5033468;28;20044;-61
2023/07/13 03:34:30;;;;;;;3.72;1.10;;;23.80;59.40;;;;;;5034202;28;20042;-61
2023/07/13 03:36:56;;;;;;;3.13;0.93;;;23.80;59.40;;;;;;5029315;28;20513;-61
2023/07/13 03:39:22;;;;;;;3.10;0.90;;;23.80;59.40;;;;;;5013672;28;20056;-61
2023/07/13 03:41:47;;;;;;;3.22;1.20;;;23.80;59.40;;;;;;5014346;28;20033;-61
2023/07/13 03:44:13;;;;;;;3.00;0.93;;;23.80;59.50;;;;;;5013950;28;20489;-61
2023/07/13 03:46:39;;;;;;;1.90;0.82;;;23.80;59.40;;;;;;5013596;28;20465;-61
2023/07/13 03:49:05;;;;;;;3.55;1.10;;;23.80;59.40;;;;;;5014589;28;20096;-62
2023/07/13 03:51:30;;;;;;;2.25;0.85;;;23.80;59.50;;;;;;5014199;28;20125;-62
2023/07/13 03:53:56;;;;;;;2.85;0.90;;;23.80;59.50;;;;;;5013455;28;20054;-61
2023/07/13 03:56:22;;;;;;;1.58;0.90;;;23.80;59.50;;;;;;5014407;28;20045;-61
2023/07/13 03:58:48;;;;;;;3.03;1.30;;;23.80;59.50;;;;;;5032941;28;20073;-62
2023/07/13 04:01:15;;;;;;;2.97;1.30;;;23.80;59.50;;;;;;5032870;28;20052;-61
2023/07/13 04:03:41;;;;;;;3.25;1.05;;;23.80;59.50;;;;;;5014974;28;20129;-61
2023/07/13 04:06:08;;;;;;;2.45;1.00;;;23.80;59.50;;;;;;5013269;28;20064;-61
2023/07/13 04:08:34;;;;;;;2.47;1.17;;;23.80;59.60;;;;;;5012710;28;20048;-61
2023/07/13 04:11:00;;;;;;;3.15;1.00;;;23.70;59.50;;;;;;5013523;28;20054;-61
2023/07/13 04:13:26;;;;;;;3.08;1.38;;;23.70;59.50;;;;;;5028572;28;20046;-61
2023/07/13 04:15:52;;;;;;;2.95;1.05;;;23.70;59.50;;;;;;5031745;28;20055;-61
2023/07/13 04:18:19;;;;;;;2.88;1.27;;;23.70;59.50;;;;;;5020343;28;20108;-61
2023/07/13 04:20:49;;;;;;;2.60;0.82;;;23.80;59.60;;;;;;5013380;28;20486;-61
2023/07/13 04:23:15;;;;;;;2.67;0.93;;;23.70;59.60;;;;;;5025851;28;20050;-61
2023/07/13 04:25:44;;;;;;;2.33;1.10;;;23.70;59.60;;;;;;5033501;28;20551;-61
2023/07/13 04:28:10;;;;;;;3.25;1.08;;;23.80;59.60;;;;;;5033552;28;20052;-61
2023/07/13 04:30:35;;;;;;;2.53;1.10;;;23.70;59.60;;;;;;5032205;28;20041;-61
2023/07/13 04:33:01;;;;;;;2.78;1.13;;;23.70;59.60;;;;;;5033324;28;20042;-61
2023/07/13 04:35:27;;;;;;;2.33;1.00;;;23.70;59.60;;;;;;5032706;28;20052;-61
2023/07/13 04:37:53;;;;;;;2.67;0.85;;;23.70;59.60;;;;;;5032824;28;20045;-61
2023/07/13 04:40:19;;;;;;;1.42;0.73;;;23.70;59.70;;;;;;5032015;28;20049;-61
2023/07/13 04:42:45;;;;;;;2.33;1.10;;;23.70;59.70;;;;;;5032143;28;20091;-61
2023/07/13 04:45:11;;;;;;;2.70;0.98;;;23.70;60.30;;;;;;5033268;28;20072;-61
2023/07/13 04:47:36;;;;;;;2.45;1.17;;;23.70;59.70;;;;;;5031706;28;20473;-61
2023/07/13 04:50:02;;;;;;;4.03;1.10;;;23.70;59.80;;;;;;5032422;28;20114;-61
2023/07/13 04:52:28;;;;;;;2.60;0.95;;;23.70;59.80;;;;;;5033074;28;20038;-61
2023/07/13 04:54:54;;;;;;;2.63;1.10;;;23.70;59.80;;;;;;5032957;28;20095;-61
2023/07/13 04:57:20;;;;;;;2.97;0.82;;;23.70;59.80;;;;;;5031878;28;20045;-61
2023/07/13 04:59:45;;;;;;;2.38;1.00;;;23.70;59.80;;;;;;5032638;28;20087;-61
2023/07/13 05:02:11;;;;;;;2.63;1.10;;;23.70;59.80;;;;;;5032859;28;20045;-61
2023/07/13 05:04:37;;;;;;;3.03;1.05;;;23.70;59.80;;;;;;5031917;28;20076;-61
2023/07/13 05:07:02;;;;;;;4.03;1.02;;;23.70;60.40;;;;;;5032877;28;20042;-61
2023/07/13 05:09:28;;;;;;;4.15;1.30;;;23.70;59.80;;;;;;5032647;28;20166;-61
2023/07/13 05:11:54;;;;;;;2.13;0.82;;;23.70;59.80;;;;;;5032386;28;20045;-61
2023/07/13 05:14:19;;;;;;;3.83;1.10;;;23.70;59.90;;;;;;5032513;28;20073;-61
2023/07/13 05:16:45;;;;;;;3.95;1.20;;;23.70;59.90;;;;;;5032455;28;20044;-61
2023/07/13 05:19:11;;;;;;;3.15;1.15;;;23.70;59.90;;;;;;5031729;28;20468;-61
2023/07/13 05:21:37;;;;;;;2.28;1.00;;;23.70;60.00;;;;;;5032457;28;20041;-61
2023/07/13 05:24:03;;;;;;;2.20;0.93;;;23.70;60.00;;;;;;5028345;28;20038;-62
2023/07/13 05:26:28;;;;;;;1.95;0.80;;;23.70;60.00;;;;;;5022212;28;20050;-61
2023/07/13 05:28:54;;;;;;;2.78;1.10;;;23.70;60.00;;;;;;5012487;28;20037;-61
2023/07/13 05:31:20;;;;;;;2.50;1.10;;;23.70;60.70;;;;;;5011733;28;20042;-61
2023/07/13 05:33:46;;;;;;;2.28;1.00;;;23.70;60.10;;;;;;5011718;28;20042;-61
2023/07/13 05:36:11;;;;;;;2.65;0.98;;;23.70;60.10;;;;;;5012772;28;20046;-61
2023/07/13 05:38:43;;;;;;;2.78;1.05;;;23.80;60.20;;;;;;5023730;28;20128;-61
2023/07/13 05:41:09;;;;;;;3.08;1.20;;;23.80;60.20;;;;;;5031945;28;20400;-61
2023/07/13 05:43:34;;;;;;;3.83;1.45;;;23.80;60.20;;;;;;5031469;28;20041;-61
2023/07/13 05:46:00;;;;;;;3.55;1.20;;;23.80;60.30;;;;;;5031834;28;20046;-61
2023/07/13 05:48:25;;;;;;;2.30;1.10;;;23.80;60.30;;;;;;5030827;28;20038;-61
2023/07/13 05:50:51;;;;;;;3.38;1.10;;;23.80;60.30;;;;;;5032211;28;20033;-61
2023/07/13 05:53:17;;;;;;;3.47;1.00;;;23.80;60.30;;;;;;5031089;28;20046;-61
2023/07/13 05:55:44;;;;;;;2.72;1.10;;;23.80;60.30;;;;;;5032210;28;20041;-61
2023/07/13 05:58:10;;;;;;;2.78;1.10;;;23.90;60.30;;;;;;5031616;28;20045;-61
2023/07/13 06:00:36;;;;;;;4.47;1.00;;;23.80;60.30;;;;;;5031288;28;20053;-61
2023/07/13 06:03:02;;;;;;;3.90;1.20;;;23.90;60.30;;;;;;5032100;28;20147;-61
2023/07/13 06:05:28;;;;;;;2.15;1.00;;;23.90;60.40;;;;;;5032258;28;20041;-61
2023/07/13 06:07:54;;;;;;;3.95;1.20;;;23.90;60.40;;;;;;5031211;28;20095;-60
2023/07/13 06:10:20;;;;;;;3.70;1.00;;;23.90;60.30;;;;;;5032069;28;20136;-60
2023/07/13 06:12:46;;;;;;;3.00;0.90;;;23.90;60.40;;;;;;5031334;28;20513;-60
2023/07/13 06:15:11;;;;;;;4.45;1.20;;;23.90;60.40;;;;;;5031228;28;20397;-60
2023/07/13 06:17:37;;;;;;;4.20;1.08;;;23.90;60.30;;;;;;5031350;28;20034;-61
2023/07/13 06:20:03;;;;;;;3.92;1.40;;;23.90;60.40;;;;;;5031849;28;20110;-61
2023/07/13 06:22:29;;;;;;;4.38;1.13;;;23.90;60.50;;;;;;5030528;28;20045;-61
2023/07/13 06:24:54;;;;;;;2.80;1.30;;;23.90;60.60;;;;;;5031722;28;20053;-60
2023/07/13 06:27:20;;;;;;;4.35;1.05;;;23.90;60.50;;;;;;5031639;28;20044;-61
2023/07/13 06:29:46;;;;;;;3.65;1.20;;;23.90;60.50;;;;;;5030703;28;20045;-60
2023/07/13 06:32:11;;;;;;;4.70;1.08;;;23.90;60.60;;;;;;5032036;28;20045;-60
2023/07/13 06:34:37;;;;;;;3.53;1.10;;;24.00;60.60;;;;;;5031113;28;20064;-60
2023/07/13 06:37:03;;;;;;;4.35;1.23;;;24.00;60.70;;;;;;5030977;28;20041;-60
2023/07/13 06:39:28;;;;;;;2.58;1.13;;;23.90;60.70;;;;;;5031760;28;20057;-60
2023/07/13 06:41:54;;;;;;;3.70;1.10;;;24.00;60.70;;;;;;5034758;28;20052;-63
2023/07/13 06:44:20;;;;;;;4.05;1.30;;;24.00;60.80;;;;;;5033481;28;20080;-61
2023/07/13 06:46:45;;;;;;;4.97;1.30;;;23.90;60.70;;;;;;5035052;28;20046;-61
2023/07/13 06:49:11;;;;;;;4.88;1.15;;;24.00;60.80;;;;;;5034077;28;20040;-61
2023/07/13 06:51:37;;;;;;;7.15;1.45;;;23.90;60.80;;;;;;5034756;28;20052;-62
2023/07/13 06:54:03;;;;;;;4.30;0.90;;;24.00;60.80;;;;;;5034484;28;20093;-60
2023/07/13 06:56:28;;;;;;;4.13;1.33;;;23.90;60.80;;;;;;5033759;28;20096;-61
2023/07/13 06:58:54;;;;;;;5.22;1.60;;;23.90;60.90;;;;;;5034824;28;20073;-61
2023/07/13 07:01:20;;;;;;;3.30;1.15;;;23.90;60.90;;;;;;5034889;28;20053;-61
2023/07/13 07:03:47;;;;;;;2.88;1.15;;;24.00;61.00;;;;;;5033269;28;20049;-61
2023/07/13 07:06:19;;;;;;;2.42;1.13;;;23.90;61.10;;;;;;5032108;28;20112;-59
2023/07/13 07:08:45;;;;;;;8.18;1.35;;;24.00;61.10;;;;;;5033458;28;20057;-60
2023/07/13 07:11:20;;;;;;;4.28;1.30;;;24.00;61.10;;;;;;5033736;28;20095;-60
2023/07/13 07:13:45;;;;;;;5.22;1.25;;;24.00;61.30;;;;;;5034270;28;20041;-61
2023/07/13 07:16:11;;;;;;;5.88;1.40;;;24.00;61.30;;;;;;5034482;28;20092;-60
2023/07/13 07:18:37;;;;;;;5.70;1.35;;;24.00;61.30;;;;;;5033284;28;20069;-60
2023/07/13 07:21:03;;;;;;;5.63;1.50;;;24.00;61.30;;;;;;5034082;28;20038;-66
2023/07/13 07:23:28;;;;;;;5.53;1.00;;;24.00;61.30;;;;;;5033835;28;20053;-61
2023/07/13 07:25:54;;;;;;;4.22;1.10;;;24.10;61.30;;;;;;5033951;28;20049;-60
2023/07/13 07:28:20;;;;;;;4.93;1.02;;;24.00;61.20;;;;;;5030994;28;20049;-60
2023/07/13 07:30:46;;;;;;;5.03;1.20;;;24.00;61.20;;;;;;5014551;28;20135;-61
2023/07/13 07:33:11;;;;;;;8.00;1.45;;;24.00;61.30;;;;;;5013547;28;20038;-61
2023/07/13 07:35:37;;;;;;;5.57;1.23;;;24.00;61.20;;;;;;5032436;28;20094;-62
2023/07/13 07:38:03;;;;;;;3.95;1.17;;;24.00;61.10;;;;;;5032302;28;20075;-61
2023/07/13 07:40:29;;;;;;;6.63;1.30;;;24.00;61.10;;;;;;5027606;28;20045;-61
2023/07/13 07:42:54;;;;;;;4.28;1.20;;;24.10;61.20;;;;;;5033572;28;20038;-60
2023/07/13 07:45:20;;;;;;;3.75;1.02;;;24.00;61.20;;;;;;5029431;28;20045;-61
2023/07/13 07:47:45;;;;;;;5.97;1.15;;;24.00;61.20;;;;;;5032487;28;20044;-60
2023/07/13 07:50:11;;;;;;;4.82;1.20;;;24.00;61.30;;;;;;5030343;28;20037;-60
2023/07/13 07:52:37;;;;;;;6.90;1.73;;;24.00;61.20;;;;;;5032449;28;20037;-60
2023/07/13 07:55:04;;;;;;;4.30;1.30;;;24.00;61.30;;;;;;5029974;28;20077;-68
2023/07/13 07:57:29;;;;;;;6.63;1.40;;;24.00;61.30;;;;;;5032959;28;20507;-62
2023/07/13 07:59:55;;;;;;;3.65;1.13;;;24.00;61.20;;;;;;5016297;28;20046;-62
2023/07/13 08:02:21;;;;;;;5.40;1.15;;;24.00;61.20;;;;;;5013994;28;20124;-64
2023/07/13 08:04:46;;;;;;;4.72;1.00;;;24.10;61.30;;;;;;5013747;28;20085;-64
2023/07/13 08:07:12;;;;;;;4.05;1.10;;;24.00;61.30;;;;;;5012679;28;20451;-67
2023/07/13 08:09:37;;;;;;;6.10;1.40;;;24.00;61.30;;;;;;5013142;28;20539;-64
2023/07/13 08:12:04;;;;;;;5.65;1.40;;;24.00;61.40;;;;;;5013964;28;20042;-70
2023/07/13 08:14:29;;;;;;;5.95;1.40;;;24.10;61.50;;;;;;5012640;28;20151;-64
2023/07/13 08:16:55;;;;;;;11.23;1.92;;;24.10;61.60;;;;;;5022822;28;20109;-63
2023/07/13 08:19:20;;;;;;;7.88;1.48;;;24.10;61.60;;;;;;5022679;28;20080;-61
2023/07/13 08:21:48;;;;;;;9.38;1.83;;;24.10;61.70;;;;;;5031985;28;20124;-67
2023/07/13 08:24:13;;;;;;;10.73;1.60;;;24.10;61.70;;;;;;5031444;28;20044;-61
2023/07/13 08:26:39;;;;;;;5.25;1.30;;;24.10;61.80;;;;;;5033009;28;20041;-63
2023/07/13 08:29:05;;;;;;;7.68;1.48;;;24.10;61.80;;;;;;5032092;28;20040;-63
2023/07/13 08:31:30;;;;;;;8.30;1.60;;;24.10;61.90;;;;;;5033188;28;20538;-63
2023/07/13 08:33:56;;;;;;;6.38;1.40;;;24.10;62.00;;;;;;5033054;28;20030;-63
2023/07/13 08:36:22;;;;;;;7.18;1.55;;;24.10;62.10;;;;;;5032249;28;20120;-62
2023/07/13 08:38:47;;;;;;;6.82;1.73;;;24.20;62.30;;;;;;5032486;28;20045;-62
2023/07/13 08:41:16;;;;;;;8.65;1.70;;;24.20;62.50;;;;;;5031768;28;20120;-69
2023/07/13 08:43:46;;;;;;;7.15;1.48;;;24.20;62.60;;;;;;5031461;28;20042;-61
2023/07/13 08:46:14;;;;;;;13.25;1.60;;;24.20;62.50;;;;;;5015298;28;20057;-63
2023/07/13 08:48:46;;;;;;;6.43;1.30;;;24.20;62.50;;;;;;5030513;28;20046;-62
2023/07/13 08:51:30;;;;;;;6.68;1.80;;;24.20;62.50;;;;;;5031226;28;20319;-61
2023/07/13 08:54:05;;;;;;;6.10;1.23;;;24.30;62.50;;;;;;5032342;28;20496;-62
2023/07/13 08:56:31;;;;;;;6.97;1.58;;;24.30;62.50;;;;;;5031597;28;20080;-63
2023/07/13 08:59:03;;;;;;;5.07;1.48;;;24.30;62.40;;;;;;5032977;28;20115;-65
2023/07/13 09:01:40;;;;;;;7.70;1.83;;;24.30;62.40;;;;;;5030937;28;20050;-63
2023/07/13 09:04:25;;;;;;;11.47;2.23;;;24.30;62.50;;;;;;5015161;28;20071;-62
2023/07/13 09:06:53;;;;;;;11.75;2.70;;;24.30;62.40;;;;;;5015770;28;20319;-63
2023/07/13 09:09:41;;;;;;;12.93;2.90;;;24.30;62.30;;;;;;5031916;28;20053;-63
2023/07/13 09:12:20;;;;;;;14.68;3.10;;;24.30;62.30;;;;;;5032375;28;20567;-63
2023/07/13 09:14:48;;;;;;;10.90;2.95;;;24.30;62.30;;;;;;4999232;28;20053;-62
2023/07/13 09:17:19;;;;;;;16.63;3.58;;;24.30;62.30;;;;;;5030346;28;20037;-63
2023/07/13 09:19:48;;;;;;;15.88;3.90;;;24.30;62.30;;;;;;5014663;28;20050;-62
2023/07/13 09:22:16;;;;;;;13.82;3.42;;;24.30;62.20;;;;;;5029904;28;20091;-63
2023/07/13 09:24:46;;;;;;;11.55;3.45;;;24.30;62.60;;;;;;5030334;28;20045;-63
2023/07/13 09:27:24;;;;;;;12.63;3.35;;;24.30;62.40;;;;;;5030657;28;20099;-62
2023/07/13 09:29:54;;;;;;;13.60;3.58;;;24.30;62.50;;;;;;5021179;28;20409;-63
2023/07/13 09:32:21;;;;;;;16.65;3.80;;;24.20;62.50;;;;;;5001802;28;20048;-63
2023/07/13 09:34:54;;;;;;;15.45;4.28;;;24.20;62.50;;;;;;5030486;28;20048;-63
2023/07/13 09:37:21;;;;;;;11.02;3.63;;;24.20;62.60;;;;;;5030159;28;20497;-63
2023/07/13 09:39:47;;;;;;;12.55;3.00;;;24.20;62.60;;;;;;5013177;28;20076;-63
2023/07/13 09:42:16;;;;;;;15.27;3.03;;;24.20;62.60;;;;;;5014992;28;20045;-63
2023/07/13 09:44:58;;;;;;;10.18;2.78;;;24.20;62.70;;;;;;5031364;28;20073;-65
2023/07/13 09:47:31;;;;;;;14.20;3.45;;;24.10;62.80;;;;;;5026990;28;20064;-63
2023/07/13 09:50:09;;;;;;;9.80;3.25;;;24.10;62.80;;;;;;5020501;28;20041;-65
2023/07/13 09:52:43;;;;;;;15.48;3.90;;;24.10;63.00;;;;;;5031328;28;20481;-64
2023/07/13 09:55:26;;;;;;;15.10;3.15;;;24.10;63.10;;;;;;5031153;28;20068;-63
2023/07/13 09:57:52;;;;;;;11.18;3.50;;;24.10;63.10;;;;;;5030485;28;20053;-63
2023/07/13 10:00:28;;;;;;;11.77;3.97;;;24.10;63.20;;;;;;5012749;28;20045;-64
2023/07/13 10:03:03;;;;;;;16.42;3.53;;;24.10;63.30;;;;;;5031999;28;20050;-64
2023/07/13 10:05:36;;;;;;;7.85;2.80;;;24.00;63.30;;;;;;5031137;28;20154;-64
2023/07/13 10:08:02;;;;;;;10.88;3.28;;;24.00;63.40;;;;;;5014109;28;20049;-63
2023/07/13 10:10:28;;;;;;;11.57;3.20;;;24.00;63.40;;;;;;5031429;28;20042;-64
2023/07/13 10:12:54;;;;;;;9.60;3.08;;;24.10;63.50;;;;;;5031397;28;20107;-65
2023/07/13 10:15:21;;;;;;;14.23;3.30;;;24.10;63.60;;;;;;5033544;28;20076;-64
2023/07/13 10:17:47;;;;;;;7.40;3.08;;;24.10;63.60;;;;;;5035054;28;20512;-64
2023/07/13 10:20:13;;;;;;;10.80;3.08;;;24.00;63.50;;;;;;5033151;28;20152;-64
2023/07/13 10:22:56;;;;;;;16.02;3.88;;;24.10;63.60;;;;;;5017645;28;20132;-64
2023/07/13 10:25:24;;;;;;;10.30;2.40;;;24.10;63.70;;;;;;5018590;28;20474;-65
2023/07/13 10:27:54;;;;;;;6.38;2.72;;;24.10;63.70;;;;;;5016452;28;20103;-64
2023/07/13 10:30:29;;;;;;;8.60;2.67;;;24.10;63.80;;;;;;5033145;28;20057;-65
2023/07/13 10:32:58;;;;;;;6.70;2.63;;;24.10;63.70;;;;;;5017893;28;20049;-65
2023/07/13 10:35:24;;;;;;;9.10;2.58;;;24.10;63.70;;;;;;5034513;28;20045;-65
2023/07/13 10:37:52;;;;;;;9.95;2.95;;;24.10;63.70;;;;;;5017728;28;20132;-65
2023/07/13 10:40:25;;;;;;;8.18;2.88;;;24.10;63.70;;;;;;5017447;28;20053;-65
2023/07/13 10:42:51;;;;;;;9.60;2.70;;;24.20;63.90;;;;;;5033495;28;20083;-65
2023/07/13 10:45:22;;;;;;;10.48;2.60;;;24.20;63.80;;;;;;5017787;28;20037;-64
2023/07/13 10:47:49;;;;;;;8.98;2.55;;;24.20;63.70;;;;;;5000850;28;20052;-65
2023/07/13 10:50:20;;;;;;;7.70;2.42;;;24.20;63.70;;;;;;5034255;28;20049;-65
2023/07/13 10:52:54;;;;;;;8.57;2.38;;;24.20;63.80;;;;;;5001060;28;20464;-65
2023/07/13 10:55:54;;;;;;;9.82;2.97;;;24.20;63.80;;;;;;5015682;28;20045;-65
2023/07/13 10:58:23;;;;;;;8.25;2.47;;;24.20;63.80;;;;;;5033165;28;20483;-64
2023/07/13 11:01:06;;;;;;;8.82;2.95;;;24.20;63.90;;;;;;5034205;28;20061;-65
2023/07/13 11:03:33;;;;;;;8.68;2.20;;;24.20;63.90;;;;;;5032465;28;20048;-64
2023/07/13 11:06:08;;;;;;;11.20;2.72;;;24.20;63.90;;;;;;5016812;28;20447;-65
2023/07/13 11:08:51;;;;;;;12.32;3.20;;;24.20;64.10;;;;;;5033556;28;20120;-65
2023/07/13 11:11:29;;;;;;;10.57;2.35;;;24.20;64.10;;;;;;5034172;28;20068;-64
2023/07/13 11:13:58;;;;;;;8.27;2.60;;;24.30;64.20;;;;;;5029814;28;20045;-63
2023/07/13 11:16:23;;;;;;;10.05;2.70;;;24.30;64.20;;;;;;5031388;28;20048;-64
2023/07/13 11:19:05;;;;;;;6.05;2.53;;;24.30;64.20;;;;;;5032936;28;20061;-62
2023/07/13 11:21:31;;;;;;;11.68;2.38;;;24.30;64.20;;;;;;5032481;28;20084;-63
2023/07/13 11:24:16;;;;;;;7.18;2.67;;;24.30;64.20;;;;;;5033083;28;20076;-63
2023/07/13 11:26:46;;;;;;;9.60;2.90;;;24.30;64.20;;;;;;5030410;28;20038;-66
2023/07/13 11:29:17;;;;;;;9.60;2.30;;;24.30;64.20;;;;;;5029240;28;20045;-63
2023/07/13 11:31:43;;;;;;;9.38;2.58;;;24.30;64.30;;;;;;5011635;28;20421;-65
2023/07/13 11:34:15;;;;;;;6.60;2.20;;;24.40;64.40;;;;;;5026646;28;20045;-65
2023/07/13 11:36:44;;;;;;;9.52;2.33;;;24.30;64.40;;;;;;5027772;28;20037;-65
2023/07/13 11:39:16;;;;;;;8.23;2.47;;;24.30;64.40;;;;;;5032950;28;20045;-64
2023/07/13 11:41:49;;;;;;;9.48;2.45;;;24.40;64.50;;;;;;5026039;28;20087;-64
2023/07/13 11:44:19;;;;;;;7.65;2.25;;;24.30;64.50;;;;;;5032364;28;20045;-64
2023/07/13 11:46:53;;;;;;;9.50;2.63;;;24.30;64.50;;;;;;5029255;28;20045;-64
2023/07/13 11:49:20;;;;;;;8.68;2.33;;;24.40;64.50;;;;;;5031526;28;20040;-63
2023/07/13 11:51:45;;;;;;;8.13;2.50;;;24.40;64.50;;;;;;5031271;28;20034;-63
2023/07/13 11:54:33;;;;;;;5.95;2.40;;;24.30;64.50;;;;;;5031871;28;20459;-63
2023/07/13 11:57:22;;;;;;;8.93;2.10;;;24.40;64.50;;;;;;5029688;28;20034;-63
2023/07/13 11:59:49;;;;;;;6.85;2.17;;;24.40;64.60;;;;;;5031462;28;20471;-63
2023/07/13 12:02:42;;;;;;;10.57;2.45;;;24.50;64.60;;;;;;5022116;28;20701;-63
2023/07/13 12:05:09;;;;;;;11.77;2.22;;;24.50;64.60;;;;;;4999860;28;20067;-83
2023/07/13 12:07:38;;;;;;;7.03;1.92;;;24.50;64.60;;;;;;5015917;28;20041;-75
2023/07/13 12:10:28;;;;;;;6.35;1.98;;;24.40;63.00;;;;;;5034492;28;20141;-75
2023/07/13 12:13:05;;;;;;;5.82;1.95;;;24.30;61.20;;;;;;5016479;28;20042;-75
2023/07/13 12:15:38;;;;;;;6.30;2.35;;;24.20;61.00;;;;;;5015225;28;20049;-74
2023/07/13 12:18:09;;;;;;;3.95;1.77;;;24.10;60.70;;;;;;4996952;28;20412;-75
2023/07/13 12:20:38;;;;;;;4.95;1.92;;;24.10;61.00;;;;;;4996341;28;20046;-75
2023/07/13 12:23:28;;;;;;;6.93;2.50;;;24.00;60.60;;;;;;5033852;28;20043;-76
2023/07/13 12:25:54;;;;;;;5.10;1.98;;;24.00;59.80;;;;;;5011555;28;20049;-76
2023/07/13 12:28:28;;;;;;;4.65;1.85;;;23.80;60.00;;;;;;5022047;28;20096;-76
2023/07/13 12:30:57;;;;;;;5.30;2.30;;;23.80;59.90;;;;;;4998353;28;20057;-75
2023/07/13 12:33:24;;;;;;;7.88;2.15;;;23.80;59.90;;;;;;4998564;28;20064;-76
2023/07/13 12:35:52;;;;;;;6.25;2.13;;;23.80;59.80;;;;;;4996691;28;20407;-75
2023/07/13 12:38:18;;;;;;;4.82;2.05;;;23.80;59.80;;;;;;4997189;28;20053;-75
2023/07/13 12:40:43;;;;;;;5.35;2.50;;;23.70;59.80;;;;;;5013973;28;20037;-75
2023/07/13 12:43:12;;;;;;;5.68;2.38;;;23.70;59.80;;;;;;4997677;28;20129;-75
2023/07/13 12:45:38;;;;;;;3.80;2.13;;;23.70;60.20;;;;;;4998064;28;20042;-74
2023/07/13 12:48:10;;;;;;;8.98;2.20;;;23.70;59.50;;;;;;4995733;28;20459;-68
2023/07/13 12:50:47;;;;;;;5.28;1.80;;;23.60;59.30;;;;;;5012837;28;20057;-70